Time;durP1;ratioP1;P1;durP2;ratioP2;P2;SDS_P1;SDS_P2;PMS_P1;PMS_P2;Temp;Humidity;BMP_temperature;BMP_pressure;BME280_temperature;BME280_humidity;BME280_pressure;Samples;Min_cycle;Max_cycle;Signal;HPM_P1;HPM_P2
2022/03/01 00:01:49;;;;;;;0.20;0.10;;;9.90;99.90;;;;;;25449177;23;20194;-65
2022/03/01 00:11:53;;;;;;;0.20;0.10;;;9.90;99.90;;;;;;25448506;23;20155;-66
2022/03/01 00:21:59;;;;;;;0.20;0.10;;;10.20;99.90;;;;;;25423422;23;20198;-66
2022/03/01 00:32:04;;;;;;;0.20;0.10;;;10.10;99.90;;;;;;25423130;23;20199;-65
2022/03/01 00:42:09;;;;;;;0.20;0.00;;;10.10;99.90;;;;;;25448331;23;20187;-65
2022/03/01 00:52:13;;;;;;;0.20;0.10;;;10.30;99.90;;;;;;25448520;23;20179;-65
2022/03/01 01:02:18;;;;;;;0.20;0.00;;;10.20;99.90;;;;;;25450270;23;20196;-66
2022/03/01 01:12:22;;;;;;;0.20;0.10;;;10.10;99.90;;;;;;25449756;23;20212;-66
2022/03/01 01:22:42;;;;;;;0.20;0.00;;;10.00;99.90;;;;;;25423286;23;20190;-66
2022/03/01 01:32:48;;;;;;;0.20;0.10;;;9.60;99.90;;;;;;25454289;23;20210;-69
2022/03/01 01:42:55;;;;;;;0.20;0.10;;;9.60;99.90;;;;;;25454220;23;20218;-69
2022/03/01 01:52:59;;;;;;;0.20;0.10;;;9.40;99.90;;;;;;25453794;23;20160;-70
2022/03/01 02:03:04;;;;;;;0.20;0.10;;;9.60;99.90;;;;;;25427423;23;20221;-69
2022/03/01 02:13:08;;;;;;;0.20;0.00;;;9.70;99.90;;;;;;25452249;23;20183;-70
2022/03/01 02:23:13;;;;;;;0.20;0.00;;;9.90;99.90;;;;;;25451714;23;20164;-71
2022/03/01 02:33:17;;;;;;;0.20;0.00;;;10.40;99.90;;;;;;25413035;23;20200;-70
2022/03/01 02:43:22;;;;;;;0.20;0.10;;;10.20;99.90;;;;;;25450900;23;20163;-66
2022/03/01 02:53:26;;;;;;;0.20;0.00;;;9.60;99.90;;;;;;25449917;23;20194;-66
2022/03/01 03:03:31;;;;;;;0.20;0.10;;;8.30;99.90;;;;;;25449455;23;20163;-70
2022/03/01 03:13:35;;;;;;;0.20;0.00;;;8.30;99.90;;;;;;25423555;23;20174;-71
2022/03/01 03:23:41;;;;;;;0.20;0.03;;;7.70;99.90;;;;;;25423245;23;20210;-72
2022/03/01 03:33:45;;;;;;;0.20;0.10;;;8.40;99.90;;;;;;25449057;23;20198;-71
2022/03/01 03:43:50;;;;;;;0.20;0.00;;;8.10;99.90;;;;;;25448362;23;20180;-64
2022/03/01 03:53:54;;;;;;;0.20;0.00;;;7.80;99.90;;;;;;25447384;23;20184;-63
2022/03/01 04:04:00;;;;;;;0.20;0.10;;;7.90;99.90;;;;;;25447963;23;20171;-64
2022/03/01 04:14:04;;;;;;;0.20;0.03;;;7.80;99.90;;;;;;25448497;23;20188;-63
2022/03/01 04:24:10;;;;;;;0.20;0.00;;;8.20;99.90;;;;;;25446833;23;20207;-62
2022/03/01 04:34:14;;;;;;;0.20;0.00;;;8.90;99.90;;;;;;25446954;23;20191;-63
2022/03/01 04:44:20;;;;;;;0.20;0.00;;;9.60;99.90;;;;;;25447079;23;20168;-63
2022/03/01 04:54:25;;;;;;;0.20;0.00;;;9.40;99.90;;;;;;25445110;23;20680;-63
2022/03/01 05:04:30;;;;;;;0.20;0.00;;;8.70;99.90;;;;;;25427942;23;20175;-63
2022/03/01 05:14:34;;;;;;;0.20;0.10;;;8.50;99.90;;;;;;25454611;23;20179;-64
2022/03/01 05:24:40;;;;;;;0.20;0.00;;;8.10;99.90;;;;;;25427815;23;20334;-63
2022/03/01 05:34:44;;;;;;;0.20;0.00;;;8.10;99.90;;;;;;25452819;23;20196;-64
2022/03/01 05:44:49;;;;;;;0.20;0.00;;;8.40;99.90;;;;;;25451225;23;20172;-63
2022/03/01 05:54:53;;;;;;;0.20;0.00;;;8.20;99.90;;;;;;25451742;23;20188;-70
2022/03/01 06:04:58;;;;;;;0.20;0.00;;;7.90;99.90;;;;;;25450217;23;20175;-62
2022/03/01 06:15:02;;;;;;;0.20;0.07;;;7.90;99.90;;;;;;25447411;23;20195;-64
2022/03/01 06:25:09;;;;;;;0.20;0.10;;;8.00;99.90;;;;;;25447645;23;20192;-64
2022/03/01 06:35:13;;;;;;;0.20;0.00;;;8.60;99.90;;;;;;25421533;23;20199;-62
2022/03/01 06:45:23;;;;;;;0.20;0.00;;;8.70;99.90;;;;;;25446083;23;20199;-63
2022/03/01 06:55:27;;;;;;;0.20;0.10;;;8.70;99.90;;;;;;25443597;23;20210;-65
2022/03/01 07:05:32;;;;;;;0.20;0.10;;;8.70;99.90;;;;;;25435510;23;20243;-70
2022/03/01 07:15:37;;;;;;;0.20;0.00;;;9.00;99.90;;;;;;25435787;23;20195;-70
2022/03/01 07:25:44;;;;;;;0.20;0.00;;;9.20;99.90;;;;;;25443336;23;20203;-70
2022/03/01 07:35:48;;;;;;;0.20;0.00;;;9.60;99.90;;;;;;25417140;23;20202;-63
2022/03/01 07:45:53;;;;;;;0.20;0.10;;;10.10;99.90;;;;;;25442655;23;20179;-65
2022/03/01 07:55:57;;;;;;;0.20;0.10;;;10.60;99.90;;;;;;25441563;23;20191;-64
2022/03/01 08:06:02;;;;;;;0.20;0.10;;;11.10;99.90;;;;;;25439483;23;20175;-64
2022/03/01 08:16:07;;;;;;;0.20;0.10;;;11.40;99.90;;;;;;25436578;23;20192;-64
2022/03/01 08:26:12;;;;;;;0.20;0.10;;;11.70;99.90;;;;;;25413816;23;20191;-61
2022/03/01 08:36:16;;;;;;;0.20;0.10;;;12.00;99.90;;;;;;25433883;23;20249;-65
2022/03/01 08:46:23;;;;;;;0.20;0.10;;;12.20;99.90;;;;;;25449453;23;20188;-65
2022/03/01 08:56:27;;;;;;;0.20;0.10;;;12.70;99.90;;;;;;25448429;23;20188;-71
2022/03/01 09:06:33;;;;;;;0.20;0.10;;;13.30;99.90;;;;;;25447299;23;20179;-72
2022/03/01 09:16:38;;;;;;;0.20;0.10;;;13.90;99.90;;;;;;25445955;23;20218;-72
2022/03/01 09:26:43;;;;;;;0.20;0.00;;;14.30;99.90;;;;;;25447627;23;20206;-73
2022/03/01 09:36:52;;;;;;;0.20;0.00;;;14.40;99.90;;;;;;25447117;23;20188;-73
2022/03/01 09:46:58;;;;;;;0.20;0.00;;;14.40;99.90;;;;;;25447508;23;20163;-80
2022/03/01 09:57:01;;;;;;;0.30;0.30;;;14.20;99.90;;;;;;25437607;23;20188;-71
2022/03/01 10:07:12;;;;;;;0.50;0.50;;;14.50;99.90;;;;;;25436538;23;20183;-74
2022/03/01 10:17:16;;;;;;;0.20;0.10;;;14.90;99.90;;;;;;25417471;23;20195;-71
2022/03/01 10:27:29;;;;;;;0.20;0.00;;;15.20;99.90;;;;;;25403778;23;20199;-69
2022/03/01 10:37:35;;;;;;;0.20;0.10;;;15.70;99.90;;;;;;25416395;23;20210;-69
2022/03/01 10:47:53;;;;;;;0.20;0.10;;;16.00;99.90;;;;;;25439739;23;20175;-68
2022/03/01 10:58:02;;;;;;;0.20;0.00;;;15.80;99.90;;;;;;25441817;23;20203;-69
2022/03/01 11:08:09;;;;;;;2.33;2.13;;;16.40;99.90;;;;;;25418302;23;20160;-70
2022/03/01 11:18:25;;;;;;;0.20;0.00;;;16.60;99.90;;;;;;25444929;23;20187;-71
2022/03/01 11:28:39;;;;;;;0.20;0.07;;;16.60;99.90;;;;;;25443930;23;20206;-73
2022/03/01 11:38:44;;;;;;;0.87;0.87;;;17.20;99.90;;;;;;25413668;23;20254;-71
2022/03/01 11:48:53;;;;;;;0.20;0.10;;;17.90;99.90;;;;;;25440436;23;20172;-71
2022/03/01 11:59:05;;;;;;;0.20;0.00;;;17.10;99.90;;;;;;25440724;23;20191;-71
2022/03/01 12:09:12;;;;;;;0.20;0.20;;;18.10;99.90;;;;;;25441435;23;20167;-72
2022/03/01 12:19:17;;;;;;;2.47;1.03;;;18.60;99.90;;;;;;25440192;23;20192;-70
2022/03/01 14:08:10;;;;;;;0.20;0.00;;;21.60;99.90;;;;;;25371202;23;20200;-70
2022/03/01 14:18:15;;;;;;;0.20;0.10;;;20.50;99.90;;;;;;25323051;23;20188;-69
2022/03/01 14:28:20;;;;;;;0.20;0.00;;;21.30;99.90;;;;;;25295564;23;20181;-70
2022/03/01 14:38:24;;;;;;;0.20;0.00;;;22.10;99.90;;;;;;25322278;23;20192;-70
2022/03/01 14:48:30;;;;;;;0.20;0.10;;;21.50;99.90;;;;;;25318472;23;20164;-68
2022/03/01 14:58:33;;;;;;;0.20;0.00;;;21.20;99.90;;;;;;25293533;23;20192;-70
2022/03/01 15:08:39;;;;;;;0.20;0.10;;;21.50;99.90;;;;;;25382348;23;20206;-69
2022/03/01 15:18:42;;;;;;;0.20;0.10;;;21.40;99.90;;;;;;25439764;23;20202;-69
2022/03/01 15:28:48;;;;;;;1.70;0.83;;;21.10;99.90;;;;;;25439958;23;20163;-70
2022/03/01 15:38:52;;;;;;;0.23;0.17;;;21.30;99.90;;;;;;25443472;23;20191;-69
2022/03/01 15:48:57;;;;;;;0.20;0.10;;;21.40;99.90;;;;;;25441472;23;20178;-70
2022/03/01 15:59:01;;;;;;;0.20;0.10;;;21.30;99.90;;;;;;25415689;23;20198;-66
2022/03/01 16:09:07;;;;;;;0.20;0.00;;;20.00;99.90;;;;;;25442048;23;20191;-67
2022/03/01 16:19:11;;;;;;;0.30;0.30;;;19.60;99.90;;;;;;25412451;23;20203;-65
2022/03/01 16:29:16;;;;;;;0.47;0.47;;;19.80;99.90;;;;;;25433942;23;20167;-66
2022/03/01 16:39:20;;;;;;;0.20;0.07;;;17.90;99.90;;;;;;25437275;23;20256;-65
2022/03/01 16:49:25;;;;;;;0.20;0.10;;;16.90;99.90;;;;;;25440147;23;20168;-65
2022/03/01 16:59:29;;;;;;;0.20;0.10;;;16.20;99.90;;;;;;25445911;23;20179;-64
2022/03/01 17:09:35;;;;;;;0.20;0.10;;;15.50;99.90;;;;;;25445064;23;20188;-64
2022/03/01 17:19:39;;;;;;;0.20;0.10;;;14.80;99.90;;;;;;25445445;23;20680;-65
2022/03/01 17:29:44;;;;;;;0.20;0.00;;;14.50;99.90;;;;;;25418790;23;20188;-69
2022/03/01 17:39:49;;;;;;;0.20;0.00;;;14.00;99.90;;;;;;25440635;23;20183;-70
2022/03/01 17:49:54;;;;;;;0.20;0.10;;;13.80;99.90;;;;;;25443683;23;20163;-68
2022/03/01 17:59:58;;;;;;;0.20;0.10;;;13.70;99.90;;;;;;25419764;23;20187;-71
2022/03/01 18:10:04;;;;;;;0.23;0.23;;;13.60;99.90;;;;;;25416625;23;20202;-69
2022/03/01 18:20:09;;;;;;;0.20;0.10;;;13.60;99.90;;;;;;25441929;23;20203;-70
2022/03/01 18:30:15;;;;;;;0.20;0.10;;;13.60;99.90;;;;;;25433936;23;20194;-70
2022/03/01 18:40:19;;;;;;;0.20;0.10;;;13.50;99.90;;;;;;25437572;23;20206;-63
2022/03/01 18:50:24;;;;;;;0.20;0.07;;;13.50;99.90;;;;;;25438889;23;20175;-65
2022/03/01 19:00:28;;;;;;;0.20;0.10;;;13.60;99.90;;;;;;25413063;23;20206;-64
2022/03/01 19:10:34;;;;;;;0.20;0.00;;;13.50;99.90;;;;;;25436705;23;20210;-63
2022/03/01 19:20:39;;;;;;;0.20;0.10;;;13.30;99.90;;;;;;25385484;23;20202;-64
2022/03/01 19:31:04;;;;;;;0.20;0.10;;;13.20;99.90;;;;;;25435392;23;20191;-63
2022/03/01 19:41:08;;;;;;;0.20;0.10;;;13.20;99.90;;;;;;25409816;23;20191;-64
2022/03/01 19:51:13;;;;;;;0.20;0.10;;;13.10;99.90;;;;;;25433686;23;20164;-64
2022/03/01 20:01:17;;;;;;;0.20;0.10;;;12.90;99.90;;;;;;25436543;23;20188;-63
2022/03/01 20:11:24;;;;;;;0.20;0.10;;;12.90;99.90;;;;;;25438300;23;20202;-64
2022/03/01 20:21:28;;;;;;;0.20;0.10;;;12.80;99.90;;;;;;25438810;23;20194;-63
2022/03/01 20:31:35;;;;;;;0.20;0.10;;;12.60;99.90;;;;;;25416297;23;20187;-63
2022/03/01 20:41:40;;;;;;;0.20;0.10;;;12.10;99.90;;;;;;25447428;23;20219;-64
2022/03/01 20:51:45;;;;;;;0.20;0.10;;;11.50;99.90;;;;;;25446322;23;20168;-69
2022/03/01 21:01:50;;;;;;;0.20;0.10;;;11.30;99.90;;;;;;25448356;23;20187;-68
2022/03/01 21:11:56;;;;;;;0.20;0.10;;;11.10;99.90;;;;;;25448178;23;20202;-67
2022/03/01 21:22:01;;;;;;;0.50;0.50;;;10.90;99.90;;;;;;25448088;23;20203;-69
2022/03/01 21:32:09;;;;;;;0.20;0.10;;;10.90;99.90;;;;;;25447972;23;20207;-68
2022/03/01 21:42:14;;;;;;;0.20;0.10;;;10.80;99.90;;;;;;25447565;23;20187;-70
2022/03/01 21:52:20;;;;;;;0.30;0.30;;;10.70;99.90;;;;;;25447005;23;20697;-69
2022/03/01 22:02:24;;;;;;;0.20;0.10;;;10.40;99.90;;;;;;25440674;23;20199;-69
2022/03/01 22:12:30;;;;;;;0.20;0.10;;;10.20;99.90;;;;;;25445790;23;20195;-67
2022/03/01 22:22:33;;;;;;;0.20;0.00;;;10.20;99.90;;;;;;25446752;23;20195;-67
2022/03/01 22:32:39;;;;;;;0.20;0.10;;;10.20;99.90;;;;;;25445118;23;20184;-68
2022/03/01 22:42:44;;;;;;;0.20;0.10;;;10.10;99.90;;;;;;25445663;23;20202;-64
2022/03/01 22:52:49;;;;;;;0.20;0.10;;;10.00;99.90;;;;;;25419959;23;20182;-64
2022/03/01 23:02:53;;;;;;;0.20;0.00;;;10.10;99.90;;;;;;25440274;23;20197;-63
2022/03/01 23:12:59;;;;;;;0.20;0.07;;;10.00;99.90;;;;;;25442957;23;20206;-62
2022/03/01 23:23:03;;;;;;;0.20;0.10;;;10.10;99.90;;;;;;25444097;23;20206;-61
2022/03/01 23:33:08;;;;;;;0.20;0.10;;;10.00;99.90;;;;;;25447273;23;20199;-63
2022/03/01 23:43:12;;;;;;;0.20;0.10;;;10.10;99.90;;;;;;25447759;23;20231;-63
2022/03/01 23:53:17;;;;;;;0.20;0.10;;;9.80;99.90;;;;;;25447309;23;20199;-69
